sensor_id;sensor_type;location;lat;lon;timestamp;pressure;altitude;pressure_sealevel;temperature
14851;BMP180;7517;48.400;11.770;2023-08-01T00:00:48;95697.00;;;22.40
14851;BMP180;7517;48.400;11.770;2023-08-01T00:03:16;95694.00;;;22.40
14851;BMP180;7517;48.400;11.770;2023-08-01T00:05:44;95699.00;;;22.40
14851;BMP180;7517;48.400;11.770;2023-08-01T00:08:12;95695.00;;;22.40
14851;BMP180;7517;48.400;11.770;2023-08-01T00:10:40;95689.00;;;22.40
14851;BMP180;7517;48.400;11.770;2023-08-01T00:13:08;95680.00;;;22.30
14851;BMP180;7517;48.400;11.770;2023-08-01T00:15:36;95668.00;;;22.40
14851;BMP180;7517;48.400;11.770;2023-08-01T00:18:04;95671.00;;;22.40
14851;BMP180;7517;48.400;11.770;2023-08-01T00:20:32;95666.00;;;22.40
14851;BMP180;7517;48.400;11.770;2023-08-01T00:23:00;95661.00;;;22.40
14851;BMP180;7517;48.400;11.770;2023-08-01T00:25:27;95655.00;;;22.40
14851;BMP180;7517;48.400;11.770;2023-08-01T00:27:55;95653.00;;;22.40
14851;BMP180;7517;48.400;11.770;2023-08-01T00:30:22;95657.00;;;22.40
14851;BMP180;7517;48.400;11.770;2023-08-01T00:32:49;95652.00;;;22.40
14851;BMP180;7517;48.400;11.770;2023-08-01T00:35:17;95649.00;;;22.40
14851;BMP180;7517;48.400;11.770;2023-08-01T00:37:45;95648.00;;;22.40
14851;BMP180;7517;48.400;11.770;2023-08-01T00:40:12;95640.00;;;22.50
14851;BMP180;7517;48.400;11.770;2023-08-01T00:42:40;95636.00;;;22.50
14851;BMP180;7517;48.400;11.770;2023-08-01T00:45:09;95624.00;;;22.50
14851;BMP180;7517;48.400;11.770;2023-08-01T00:47:36;95619.00;;;22.50
14851;BMP180;7517;48.400;11.770;2023-08-01T00:50:05;95613.00;;;22.50
14851;BMP180;7517;48.400;11.770;2023-08-01T00:52:33;95613.00;;;22.50
14851;BMP180;7517;48.400;11.770;2023-08-01T00:55:03;95611.00;;;22.50
14851;BMP180;7517;48.400;11.770;2023-08-01T00:57:30;95601.00;;;22.50
14851;BMP180;7517;48.400;11.770;2023-08-01T00:59:58;95605.00;;;22.50
14851;BMP180;7517;48.400;11.770;2023-08-01T01:02:25;95602.00;;;22.50
14851;BMP180;7517;48.400;11.770;2023-08-01T01:04:52;95602.00;;;22.50
14851;BMP180;7517;48.400;11.770;2023-08-01T01:07:21;95591.00;;;22.50
14851;BMP180;7517;48.400;11.770;2023-08-01T01:09:50;95596.00;;;22.50
14851;BMP180;7517;48.400;11.770;2023-08-01T01:12:19;95590.00;;;22.50
14851;BMP180;7517;48.400;11.770;2023-08-01T01:14:46;95589.00;;;22.50
14851;BMP180;7517;48.400;11.770;2023-08-01T01:17:13;95571.00;;;22.50
14851;BMP180;7517;48.400;11.770;2023-08-01T01:19:41;95575.00;;;22.50
14851;BMP180;7517;48.400;11.770;2023-08-01T01:22:10;95574.00;;;22.50
14851;BMP180;7517;48.400;11.770;2023-08-01T01:24:39;95564.00;;;22.50
14851;BMP180;7517;48.400;11.770;2023-08-01T01:27:08;95561.00;;;22.50
14851;BMP180;7517;48.400;11.770;2023-08-01T01:29:37;95561.00;;;22.50
14851;BMP180;7517;48.400;11.770;2023-08-01T01:32:06;95560.00;;;22.40
14851;BMP180;7517;48.400;11.770;2023-08-01T01:34:34;95550.00;;;22.40
14851;BMP180;7517;48.400;11.770;2023-08-01T01:37:02;95555.00;;;22.40
14851;BMP180;7517;48.400;11.770;2023-08-01T01:39:30;95546.00;;;22.40
14851;BMP180;7517;48.400;11.770;2023-08-01T01:41:58;95545.00;;;22.40
14851;BMP180;7517;48.400;11.770;2023-08-01T01:44:25;95552.00;;;22.40
14851;BMP180;7517;48.400;11.770;2023-08-01T01:46:52;95540.00;;;22.30
14851;BMP180;7517;48.400;11.770;2023-08-01T01:49:20;95546.00;;;22.30
14851;BMP180;7517;48.400;11.770;2023-08-01T01:51:47;95542.00;;;22.30
14851;BMP180;7517;48.400;11.770;2023-08-01T01:54:15;95544.00;;;22.30
14851;BMP180;7517;48.400;11.770;2023-08-01T01:56:43;95542.00;;;22.30
14851;BMP180;7517;48.400;11.770;2023-08-01T01:59:10;95533.00;;;22.40
14851;BMP180;7517;48.400;11.770;2023-08-01T02:01:38;95527.00;;;22.40
14851;BMP180;7517;48.400;11.770;2023-08-01T02:04:05;95523.00;;;22.40
14851;BMP180;7517;48.400;11.770;2023-08-01T02:06:32;95520.00;;;22.40
14851;BMP180;7517;48.400;11.770;2023-08-01T02:09:00;95522.00;;;22.40
14851;BMP180;7517;48.400;11.770;2023-08-01T02:11:27;95512.00;;;22.40
14851;BMP180;7517;48.400;11.770;2023-08-01T02:13:56;95511.00;;;22.40
14851;BMP180;7517;48.400;11.770;2023-08-01T02:16:23;95508.00;;;22.40
14851;BMP180;7517;48.400;11.770;2023-08-01T02:18:50;95501.00;;;22.40
14851;BMP180;7517;48.400;11.770;2023-08-01T02:21:18;95493.00;;;22.40
14851;BMP180;7517;48.400;11.770;2023-08-01T02:23:45;95494.00;;;22.40
14851;BMP180;7517;48.400;11.770;2023-08-01T02:26:12;95488.00;;;22.40
14851;BMP180;7517;48.400;11.770;2023-08-01T02:28:40;95482.00;;;22.40
14851;BMP180;7517;48.400;11.770;2023-08-01T02:31:09;95488.00;;;22.40
14851;BMP180;7517;48.400;11.770;2023-08-01T02:33:36;95487.00;;;22.30
14851;BMP180;7517;48.400;11.770;2023-08-01T02:36:03;95483.00;;;22.30
14851;BMP180;7517;48.400;11.770;2023-08-01T02:38:31;95478.00;;;22.30
14851;BMP180;7517;48.400;11.770;2023-08-01T02:40:58;95477.00;;;22.30
14851;BMP180;7517;48.400;11.770;2023-08-01T02:43:25;95464.00;;;22.30
14851;BMP180;7517;48.400;11.770;2023-08-01T02:45:53;95473.00;;;22.30
14851;BMP180;7517;48.400;11.770;2023-08-01T02:48:22;95461.00;;;22.30
14851;BMP180;7517;48.400;11.770;2023-08-01T02:50:49;95463.00;;;22.30
14851;BMP180;7517;48.400;11.770;2023-08-01T02:53:16;95467.00;;;22.30
14851;BMP180;7517;48.400;11.770;2023-08-01T02:55:45;95462.00;;;22.30
14851;BMP180;7517;48.400;11.770;2023-08-01T02:58:14;95468.00;;;22.30
14851;BMP180;7517;48.400;11.770;2023-08-01T03:00:41;95467.00;;;22.30
14851;BMP180;7517;48.400;11.770;2023-08-01T03:03:09;95464.00;;;22.30
14851;BMP180;7517;48.400;11.770;2023-08-01T03:05:38;95464.00;;;22.30
14851;BMP180;7517;48.400;11.770;2023-08-01T03:08:05;95471.00;;;22.30
14851;BMP180;7517;48.400;11.770;2023-08-01T03:10:32;95472.00;;;22.30
14851;BMP180;7517;48.400;11.770;2023-08-01T03:12:59;95474.00;;;22.30
14851;BMP180;7517;48.400;11.770;2023-08-01T03:15:27;95478.00;;;22.30
14851;BMP180;7517;48.400;11.770;2023-08-01T03:17:55;95484.00;;;22.30
14851;BMP180;7517;48.400;11.770;2023-08-01T03:20:22;95486.00;;;22.30
14851;BMP180;7517;48.400;11.770;2023-08-01T03:22:51;95489.00;;;22.30
14851;BMP180;7517;48.400;11.770;2023-08-01T03:25:18;95494.00;;;22.30
14851;BMP180;7517;48.400;11.770;2023-08-01T03:27:45;95506.00;;;22.30
14851;BMP180;7517;48.400;11.770;2023-08-01T03:30:12;95516.00;;;22.20
14851;BMP180;7517;48.400;11.770;2023-08-01T03:32:40;95502.00;;;22.20
14851;BMP180;7517;48.400;11.770;2023-08-01T03:35:08;95507.00;;;22.20
14851;BMP180;7517;48.400;11.770;2023-08-01T03:37:35;95486.00;;;22.20
14851;BMP180;7517;48.400;11.770;2023-08-01T03:40:04;95498.00;;;22.10
14851;BMP180;7517;48.400;11.770;2023-08-01T03:42:34;95489.00;;;22.10
14851;BMP180;7517;48.400;11.770;2023-08-01T03:45:02;95488.00;;;22.10
14851;BMP180;7517;48.400;11.770;2023-08-01T03:47:29;95498.00;;;22.10
14851;BMP180;7517;48.400;11.770;2023-08-01T03:49:57;95501.00;;;22.10
14851;BMP180;7517;48.400;11.770;2023-08-01T03:52:25;95498.00;;;22.10
14851;BMP180;7517;48.400;11.770;2023-08-01T03:54:54;95506.00;;;22.10
14851;BMP180;7517;48.400;11.770;2023-08-01T03:57:24;95504.00;;;22.00
14851;BMP180;7517;48.400;11.770;2023-08-01T03:59:51;95507.00;;;22.00
14851;BMP180;7517;48.400;11.770;2023-08-01T04:02:18;95504.00;;;22.00
14851;BMP180;7517;48.400;11.770;2023-08-01T04:04:48;95507.00;;;22.00
14851;BMP180;7517;48.400;11.770;2023-08-01T04:07:15;95514.00;;;21.90
14851;BMP180;7517;48.400;11.770;2023-08-01T04:09:43;95516.00;;;21.90
14851;BMP180;7517;48.400;11.770;2023-08-01T04:12:10;95516.00;;;21.90
14851;BMP180;7517;48.400;11.770;2023-08-01T04:14:39;95504.00;;;21.80
14851;BMP180;7517;48.400;11.770;2023-08-01T04:17:06;95509.00;;;21.80
14851;BMP180;7517;48.400;11.770;2023-08-01T04:19:33;95495.00;;;21.80
14851;BMP180;7517;48.400;11.770;2023-08-01T04:22:00;95498.00;;;21.70
14851;BMP180;7517;48.400;11.770;2023-08-01T04:24:27;95497.00;;;21.70
14851;BMP180;7517;48.400;11.770;2023-08-01T04:26:57;95496.00;;;21.70
14851;BMP180;7517;48.400;11.770;2023-08-01T04:29:24;95498.00;;;21.70
14851;BMP180;7517;48.400;11.770;2023-08-01T04:31:53;95496.00;;;21.70
14851;BMP180;7517;48.400;11.770;2023-08-01T04:34:20;95499.00;;;21.60
14851;BMP180;7517;48.400;11.770;2023-08-01T04:36:47;95505.00;;;21.60
14851;BMP180;7517;48.400;11.770;2023-08-01T04:39:14;95504.00;;;21.60
14851;BMP180;7517;48.400;11.770;2023-08-01T04:41:41;95504.00;;;21.50
14851;BMP180;7517;48.400;11.770;2023-08-01T04:44:08;95504.00;;;21.50
14851;BMP180;7517;48.400;11.770;2023-08-01T04:46:36;95503.00;;;21.50
14851;BMP180;7517;48.400;11.770;2023-08-01T04:49:04;95494.00;;;21.50
14851;BMP180;7517;48.400;11.770;2023-08-01T04:51:31;95488.00;;;21.50
14851;BMP180;7517;48.400;11.770;2023-08-01T04:53:58;95478.00;;;21.40
14851;BMP180;7517;48.400;11.770;2023-08-01T04:56:26;95484.00;;;21.40
14851;BMP180;7517;48.400;11.770;2023-08-01T04:58:53;95473.00;;;21.40
14851;BMP180;7517;48.400;11.770;2023-08-01T05:01:20;95464.00;;;21.30
14851;BMP180;7517;48.400;11.770;2023-08-01T05:03:47;95466.00;;;21.30
14851;BMP180;7517;48.400;11.770;2023-08-01T05:06:15;95459.00;;;21.30
14851;BMP180;7517;48.400;11.770;2023-08-01T05:08:43;95463.00;;;21.30
14851;BMP180;7517;48.400;11.770;2023-08-01T05:11:10;95442.00;;;21.30
14851;BMP180;7517;48.400;11.770;2023-08-01T05:13:37;95438.00;;;21.20
14851;BMP180;7517;48.400;11.770;2023-08-01T05:16:04;95434.00;;;21.20
14851;BMP180;7517;48.400;11.770;2023-08-01T05:18:31;95435.00;;;21.10
14851;BMP180;7517;48.400;11.770;2023-08-01T05:20:59;95432.00;;;21.10
14851;BMP180;7517;48.400;11.770;2023-08-01T05:23:27;95427.00;;;21.10
14851;BMP180;7517;48.400;11.770;2023-08-01T05:25:54;95436.00;;;21.10
14851;BMP180;7517;48.400;11.770;2023-08-01T05:28:21;95442.00;;;21.10
14851;BMP180;7517;48.400;11.770;2023-08-01T05:30:48;95437.00;;;21.10
14851;BMP180;7517;48.400;11.770;2023-08-01T05:33:16;95435.00;;;21.10
14851;BMP180;7517;48.400;11.770;2023-08-01T05:35:43;95427.00;;;21.10
14851;BMP180;7517;48.400;11.770;2023-08-01T05:38:10;95433.00;;;21.10
14851;BMP180;7517;48.400;11.770;2023-08-01T05:40:38;95429.00;;;21.10
14851;BMP180;7517;48.400;11.770;2023-08-01T05:43:06;95433.00;;;21.10
14851;BMP180;7517;48.400;11.770;2023-08-01T05:45:34;95438.00;;;21.10
14851;BMP180;7517;48.400;11.770;2023-08-01T05:48:01;95440.00;;;21.10
14851;BMP180;7517;48.400;11.770;2023-08-01T05:50:28;95443.00;;;21.20
14851;BMP180;7517;48.400;11.770;2023-08-01T05:52:56;95435.00;;;21.20
14851;BMP180;7517;48.400;11.770;2023-08-01T05:55:23;95428.00;;;21.20
14851;BMP180;7517;48.400;11.770;2023-08-01T05:57:51;95433.00;;;21.20
14851;BMP180;7517;48.400;11.770;2023-08-01T06:00:19;95421.00;;;21.20
14851;BMP180;7517;48.400;11.770;2023-08-01T06:02:47;95422.00;;;21.20
14851;BMP180;7517;48.400;11.770;2023-08-01T06:05:15;95419.00;;;21.20
14851;BMP180;7517;48.400;11.770;2023-08-01T06:07:44;95403.00;;;21.30
14851;BMP180;7517;48.400;11.770;2023-08-01T06:10:11;95400.00;;;21.30
14851;BMP180;7517;48.400;11.770;2023-08-01T06:12:39;95404.00;;;21.30
14851;BMP180;7517;48.400;11.770;2023-08-01T06:15:09;95395.00;;;21.30
14851;BMP180;7517;48.400;11.770;2023-08-01T06:17:36;95389.00;;;21.30
14851;BMP180;7517;48.400;11.770;2023-08-01T06:20:05;95366.00;;;21.30
14851;BMP180;7517;48.400;11.770;2023-08-01T06:22:32;95363.00;;;21.40
14851;BMP180;7517;48.400;11.770;2023-08-01T06:24:59;95354.00;;;21.40
14851;BMP180;7517;48.400;11.770;2023-08-01T06:27:27;95356.00;;;21.40
14851;BMP180;7517;48.400;11.770;2023-08-01T06:29:54;95342.00;;;21.30
14851;BMP180;7517;48.400;11.770;2023-08-01T06:32:22;95335.00;;;21.40
14851;BMP180;7517;48.400;11.770;2023-08-01T06:34:50;95331.00;;;21.40
14851;BMP180;7517;48.400;11.770;2023-08-01T06:37:17;95339.00;;;21.30
14851;BMP180;7517;48.400;11.770;2023-08-01T06:39:44;95335.00;;;21.40
14851;BMP180;7517;48.400;11.770;2023-08-01T06:42:11;95350.00;;;21.40
14851;BMP180;7517;48.400;11.770;2023-08-01T06:44:39;95349.00;;;21.40
14851;BMP180;7517;48.400;11.770;2023-08-01T06:47:07;95360.00;;;21.40
14851;BMP180;7517;48.400;11.770;2023-08-01T06:49:36;95353.00;;;21.40
14851;BMP180;7517;48.400;11.770;2023-08-01T06:52:04;95354.00;;;21.50
14851;BMP180;7517;48.400;11.770;2023-08-01T06:54:32;95345.00;;;21.50
14851;BMP180;7517;48.400;11.770;2023-08-01T06:56:59;95339.00;;;21.50
14851;BMP180;7517;48.400;11.770;2023-08-01T06:59:28;95332.00;;;21.50
14851;BMP180;7517;48.400;11.770;2023-08-01T07:01:55;95330.00;;;21.60
14851;BMP180;7517;48.400;11.770;2023-08-01T07:04:23;95347.00;;;21.60
14851;BMP180;7517;48.400;11.770;2023-08-01T07:06:51;95337.00;;;21.60
14851;BMP180;7517;48.400;11.770;2023-08-01T07:09:19;95328.00;;;21.60
14851;BMP180;7517;48.400;11.770;2023-08-01T07:11:46;95324.00;;;21.60
14851;BMP180;7517;48.400;11.770;2023-08-01T07:14:13;95317.00;;;21.70
14851;BMP180;7517;48.400;11.770;2023-08-01T07:16:40;95315.00;;;21.70
14851;BMP180;7517;48.400;11.770;2023-08-01T07:19:09;95302.00;;;21.70
14851;BMP180;7517;48.400;11.770;2023-08-01T07:21:37;95301.00;;;21.80
14851;BMP180;7517;48.400;11.770;2023-08-01T07:24:06;95308.00;;;21.80
14851;BMP180;7517;48.400;11.770;2023-08-01T07:26:35;95315.00;;;21.80
14851;BMP180;7517;48.400;11.770;2023-08-01T07:29:03;95316.00;;;21.80
14851;BMP180;7517;48.400;11.770;2023-08-01T07:31:30;95320.00;;;21.90
14851;BMP180;7517;48.400;11.770;2023-08-01T07:33:57;95317.00;;;21.90
14851;BMP180;7517;48.400;11.770;2023-08-01T07:36:24;95322.00;;;22.00
14851;BMP180;7517;48.400;11.770;2023-08-01T07:38:53;95308.00;;;22.00
14851;BMP180;7517;48.400;11.770;2023-08-01T07:41:23;95306.00;;;22.00
14851;BMP180;7517;48.400;11.770;2023-08-01T07:43:50;95303.00;;;22.00
14851;BMP180;7517;48.400;11.770;2023-08-01T07:46:17;95307.00;;;22.10
14851;BMP180;7517;48.400;11.770;2023-08-01T07:48:44;95320.00;;;22.10
14851;BMP180;7517;48.400;11.770;2023-08-01T07:51:11;95328.00;;;22.20
14851;BMP180;7517;48.400;11.770;2023-08-01T07:53:38;95325.00;;;22.20
14851;BMP180;7517;48.400;11.770;2023-08-01T07:56:05;95331.00;;;22.20
14851;BMP180;7517;48.400;11.770;2023-08-01T07:58:35;95317.00;;;22.30
14851;BMP180;7517;48.400;11.770;2023-08-01T08:01:03;95317.00;;;22.30
14851;BMP180;7517;48.400;11.770;2023-08-01T08:03:31;95317.00;;;22.40
14851;BMP180;7517;48.400;11.770;2023-08-01T08:05:59;95338.00;;;22.50
14851;BMP180;7517;48.400;11.770;2023-08-01T08:08:26;95322.00;;;22.50
14851;BMP180;7517;48.400;11.770;2023-08-01T08:10:53;95317.00;;;22.60
14851;BMP180;7517;48.400;11.770;2023-08-01T08:13:20;95309.00;;;22.70
14851;BMP180;7517;48.400;11.770;2023-08-01T08:15:49;95305.00;;;22.80
14851;BMP180;7517;48.400;11.770;2023-08-01T08:18:16;95299.00;;;22.80
14851;BMP180;7517;48.400;11.770;2023-08-01T08:20:45;95292.00;;;22.90
14851;BMP180;7517;48.400;11.770;2023-08-01T08:23:13;95307.00;;;22.90
14851;BMP180;7517;48.400;11.770;2023-08-01T08:25:41;95321.00;;;22.90
14851;BMP180;7517;48.400;11.770;2023-08-01T08:28:11;95327.00;;;22.90
14851;BMP180;7517;48.400;11.770;2023-08-01T08:30:38;95337.00;;;23.00
14851;BMP180;7517;48.400;11.770;2023-08-01T08:33:07;95327.00;;;23.00
14851;BMP180;7517;48.400;11.770;2023-08-01T08:35:36;95329.00;;;23.00
14851;BMP180;7517;48.400;11.770;2023-08-01T08:38:04;95332.00;;;23.00
14851;BMP180;7517;48.400;11.770;2023-08-01T08:40:32;95343.00;;;23.00
14851;BMP180;7517;48.400;11.770;2023-08-01T08:43:02;95341.00;;;23.00
14851;BMP180;7517;48.400;11.770;2023-08-01T08:45:35;95348.00;;;23.00
14851;BMP180;7517;48.400;11.770;2023-08-01T08:48:12;95368.00;;;23.00
14851;BMP180;7517;48.400;11.770;2023-08-01T08:50:41;95364.00;;;23.00
14851;BMP180;7517;48.400;11.770;2023-08-01T08:53:09;95370.00;;;23.00
14851;BMP180;7517;48.400;11.770;2023-08-01T08:55:39;95366.00;;;23.00
14851;BMP180;7517;48.400;11.770;2023-08-01T08:58:08;95363.00;;;23.00
14851;BMP180;7517;48.400;11.770;2023-08-01T09:00:36;95365.00;;;23.00
14851;BMP180;7517;48.400;11.770;2023-08-01T09:03:04;95371.00;;;23.00
14851;BMP180;7517;48.400;11.770;2023-08-01T09:05:42;95363.00;;;23.00
14851;BMP180;7517;48.400;11.770;2023-08-01T09:08:18;95367.00;;;23.10
14851;BMP180;7517;48.400;11.770;2023-08-01T09:10:47;95364.00;;;23.10
14851;BMP180;7517;48.400;11.770;2023-08-01T09:13:14;95371.00;;;23.10
14851;BMP180;7517;48.400;11.770;2023-08-01T09:15:42;95376.00;;;23.10
14851;BMP180;7517;48.400;11.770;2023-08-01T09:18:10;95378.00;;;23.10
14851;BMP180;7517;48.400;11.770;2023-08-01T09:20:44;95378.00;;;23.10
14851;BMP180;7517;48.400;11.770;2023-08-01T09:23:13;95375.00;;;23.10
14851;BMP180;7517;48.400;11.770;2023-08-01T09:25:41;95379.00;;;23.10
14851;BMP180;7517;48.400;11.770;2023-08-01T09:28:19;95382.00;;;23.20
14851;BMP180;7517;48.400;11.770;2023-08-01T09:30:49;95370.00;;;23.20
14851;BMP180;7517;48.400;11.770;2023-08-01T09:33:17;95383.00;;;23.30
14851;BMP180;7517;48.400;11.770;2023-08-01T09:35:48;95383.00;;;23.30
14851;BMP180;7517;48.400;11.770;2023-08-01T09:38:16;95369.00;;;23.40
14851;BMP180;7517;48.400;11.770;2023-08-01T09:40:45;95380.00;;;23.50
14851;BMP180;7517;48.400;11.770;2023-08-01T09:43:13;95390.00;;;23.60
14851;BMP180;7517;48.400;11.770;2023-08-01T09:45:51;95383.00;;;23.60
14851;BMP180;7517;48.400;11.770;2023-08-01T09:48:24;95380.00;;;23.70
14851;BMP180;7517;48.400;11.770;2023-08-01T09:51:05;95390.00;;;23.70
14851;BMP180;7517;48.400;11.770;2023-08-01T09:53:33;95387.00;;;23.70
14851;BMP180;7517;48.400;11.770;2023-08-01T09:56:01;95384.00;;;23.70
14851;BMP180;7517;48.400;11.770;2023-08-01T09:58:32;95386.00;;;23.80
14851;BMP180;7517;48.400;11.770;2023-08-01T10:01:00;95383.00;;;23.80
14851;BMP180;7517;48.400;11.770;2023-08-01T10:03:28;95380.00;;;23.90
14851;BMP180;7517;48.400;11.770;2023-08-01T10:05:59;95381.00;;;24.00
14851;BMP180;7517;48.400;11.770;2023-08-01T10:08:28;95368.00;;;24.00
14851;BMP180;7517;48.400;11.770;2023-08-01T10:10:57;95361.00;;;24.00
14851;BMP180;7517;48.400;11.770;2023-08-01T10:13:26;95363.00;;;24.10
14851;BMP180;7517;48.400;11.770;2023-08-01T10:15:54;95360.00;;;24.20
14851;BMP180;7517;48.400;11.770;2023-08-01T10:18:23;95364.00;;;24.20
14851;BMP180;7517;48.400;11.770;2023-08-01T10:20:51;95367.00;;;24.20
14851;BMP180;7517;48.400;11.770;2023-08-01T10:23:27;95367.00;;;24.20
14851;BMP180;7517;48.400;11.770;2023-08-01T10:25:54;95378.00;;;24.20
14851;BMP180;7517;48.400;11.770;2023-08-01T10:28:31;95400.00;;;24.10
14851;BMP180;7517;48.400;11.770;2023-08-01T10:31:12;95411.00;;;24.10
14851;BMP180;7517;48.400;11.770;2023-08-01T10:33:44;95431.00;;;24.00
14851;BMP180;7517;48.400;11.770;2023-08-01T10:36:16;95441.00;;;23.90
14851;BMP180;7517;48.400;11.770;2023-08-01T10:38:51;95436.00;;;23.70
14851;BMP180;7517;48.400;11.770;2023-08-01T10:41:26;95412.00;;;23.50
14851;BMP180;7517;48.400;11.770;2023-08-01T10:44:05;95409.00;;;23.30
14851;BMP180;7517;48.400;11.770;2023-08-01T10:46:49;95400.00;;;23.10
14851;BMP180;7517;48.400;11.770;2023-08-01T10:49:18;95385.00;;;23.00
14851;BMP180;7517;48.400;11.770;2023-08-01T10:51:46;95371.00;;;22.90
14851;BMP180;7517;48.400;11.770;2023-08-01T10:54:22;95361.00;;;22.70
14851;BMP180;7517;48.400;11.770;2023-08-01T10:56:53;95341.00;;;22.60
14851;BMP180;7517;48.400;11.770;2023-08-01T10:59:21;95337.00;;;22.50
14851;BMP180;7517;48.400;11.770;2023-08-01T11:01:51;95352.00;;;22.50
14851;BMP180;7517;48.400;11.770;2023-08-01T11:04:20;95369.00;;;22.40
14851;BMP180;7517;48.400;11.770;2023-08-01T11:06:50;95370.00;;;22.40
14851;BMP180;7517;48.400;11.770;2023-08-01T11:09:21;95380.00;;;22.30
14851;BMP180;7517;48.400;11.770;2023-08-01T11:11:52;95389.00;;;22.30
14851;BMP180;7517;48.400;11.770;2023-08-01T11:14:21;95388.00;;;22.30
14851;BMP180;7517;48.400;11.770;2023-08-01T11:16:50;95378.00;;;22.30
14851;BMP180;7517;48.400;11.770;2023-08-01T11:19:20;95396.00;;;22.30
14851;BMP180;7517;48.400;11.770;2023-08-01T11:21:47;95389.00;;;22.40
14851;BMP180;7517;48.400;11.770;2023-08-01T11:24:16;95374.00;;;22.40
14851;BMP180;7517;48.400;11.770;2023-08-01T11:26:47;95376.00;;;22.40
14851;BMP180;7517;48.400;11.770;2023-08-01T11:29:16;95387.00;;;22.40
14851;BMP180;7517;48.400;11.770;2023-08-01T11:31:53;95390.00;;;22.40
14851;BMP180;7517;48.400;11.770;2023-08-01T11:34:21;95394.00;;;22.50
14851;BMP180;7517;48.400;11.770;2023-08-01T11:36:49;95390.00;;;22.50
14851;BMP180;7517;48.400;11.770;2023-08-01T11:39:17;95394.00;;;22.50
14851;BMP180;7517;48.400;11.770;2023-08-01T11:41:46;95384.00;;;22.60
14851;BMP180;7517;48.400;11.770;2023-08-01T11:44:13;95384.00;;;22.60
14851;BMP180;7517;48.400;11.770;2023-08-01T11:46:40;95383.00;;;22.70
14851;BMP180;7517;48.400;11.770;2023-08-01T11:49:08;95377.00;;;22.70
14851;BMP180;7517;48.400;11.770;2023-08-01T11:51:40;95385.00;;;22.80
14851;BMP180;7517;48.400;11.770;2023-08-01T11:54:09;95373.00;;;22.80
14851;BMP180;7517;48.400;11.770;2023-08-01T11:56:38;95374.00;;;22.80
14851;BMP180;7517;48.400;11.770;2023-08-01T11:59:11;95376.00;;;22.90
14851;BMP180;7517;48.400;11.770;2023-08-01T12:01:39;95370.00;;;22.90
14851;BMP180;7517;48.400;11.770;2023-08-01T12:04:08;95378.00;;;22.90
14851;BMP180;7517;48.400;11.770;2023-08-01T12:06:36;95383.00;;;22.90
14851;BMP180;7517;48.400;11.770;2023-08-01T12:09:10;95387.00;;;22.90
14851;BMP180;7517;48.400;11.770;2023-08-01T12:11:39;95379.00;;;22.90
14851;BMP180;7517;48.400;11.770;2023-08-01T12:14:11;95395.00;;;22.90
14851;BMP180;7517;48.400;11.770;2023-08-01T12:16:41;95396.00;;;22.90
14851;BMP180;7517;48.400;11.770;2023-08-01T12:19:10;95394.00;;;22.80
14851;BMP180;7517;48.400;11.770;2023-08-01T12:21:43;95387.00;;;22.80
14851;BMP180;7517;48.400;11.770;2023-08-01T12:24:15;95392.00;;;22.80
14851;BMP180;7517;48.400;11.770;2023-08-01T12:26:43;95401.00;;;22.80
14851;BMP180;7517;48.400;11.770;2023-08-01T12:29:11;95411.00;;;22.80
14851;BMP180;7517;48.400;11.770;2023-08-01T12:31:39;95414.00;;;22.70
14851;BMP180;7517;48.400;11.770;2023-08-01T12:34:06;95433.00;;;22.70
14851;BMP180;7517;48.400;11.770;2023-08-01T12:36:34;95418.00;;;22.70
14851;BMP180;7517;48.400;11.770;2023-08-01T12:39:01;95410.00;;;22.70
14851;BMP180;7517;48.400;11.770;2023-08-01T12:41:29;95410.00;;;22.70
14851;BMP180;7517;48.400;11.770;2023-08-01T12:43:56;95407.00;;;22.70
14851;BMP180;7517;48.400;11.770;2023-08-01T12:46:25;95407.00;;;22.70
14851;BMP180;7517;48.400;11.770;2023-08-01T12:48:52;95404.00;;;22.70
14851;BMP180;7517;48.400;11.770;2023-08-01T12:51:20;95403.00;;;22.70
14851;BMP180;7517;48.400;11.770;2023-08-01T12:53:48;95399.00;;;22.70
14851;BMP180;7517;48.400;11.770;2023-08-01T12:56:15;95412.00;;;22.70
14851;BMP180;7517;48.400;11.770;2023-08-01T12:58:42;95425.00;;;22.70
14851;BMP180;7517;48.400;11.770;2023-08-01T13:01:09;95413.00;;;22.70
14851;BMP180;7517;48.400;11.770;2023-08-01T13:03:38;95410.00;;;22.80
14851;BMP180;7517;48.400;11.770;2023-08-01T13:06:05;95398.00;;;22.80
14851;BMP180;7517;48.400;11.770;2023-08-01T13:08:32;95409.00;;;22.90
14851;BMP180;7517;48.400;11.770;2023-08-01T13:11:00;95389.00;;;22.90
14851;BMP180;7517;48.400;11.770;2023-08-01T13:13:28;95394.00;;;23.00
14851;BMP180;7517;48.400;11.770;2023-08-01T13:15:56;95395.00;;;23.10
14851;BMP180;7517;48.400;11.770;2023-08-01T13:18:24;95395.00;;;23.20
14851;BMP180;7517;48.400;11.770;2023-08-01T13:20:52;95380.00;;;23.30
14851;BMP180;7517;48.400;11.770;2023-08-01T13:23:21;95392.00;;;23.40
14851;BMP180;7517;48.400;11.770;2023-08-01T13:25:49;95370.00;;;23.40
14851;BMP180;7517;48.400;11.770;2023-08-01T13:28:16;95377.00;;;23.50
14851;BMP180;7517;48.400;11.770;2023-08-01T13:30:43;95382.00;;;23.50
14851;BMP180;7517;48.400;11.770;2023-08-01T13:33:10;95392.00;;;23.40
14851;BMP180;7517;48.400;11.770;2023-08-01T13:35:37;95392.00;;;23.50
14851;BMP180;7517;48.400;11.770;2023-08-01T13:38:06;95394.00;;;23.50
14851;BMP180;7517;48.400;11.770;2023-08-01T13:40:33;95387.00;;;23.50
14851;BMP180;7517;48.400;11.770;2023-08-01T13:43:01;95400.00;;;23.50
14851;BMP180;7517;48.400;11.770;2023-08-01T13:45:30;95394.00;;;23.60
14851;BMP180;7517;48.400;11.770;2023-08-01T13:47:58;95386.00;;;23.60
14851;BMP180;7517;48.400;11.770;2023-08-01T13:50:28;95383.00;;;23.70
14851;BMP180;7517;48.400;11.770;2023-08-01T13:52:56;95376.00;;;23.80
14851;BMP180;7517;48.400;11.770;2023-08-01T13:55:24;95388.00;;;23.80
14851;BMP180;7517;48.400;11.770;2023-08-01T13:57:51;95384.00;;;23.90
14851;BMP180;7517;48.400;11.770;2023-08-01T14:00:19;95375.00;;;23.90
14851;BMP180;7517;48.400;11.770;2023-08-01T14:02:49;95399.00;;;23.90
14851;BMP180;7517;48.400;11.770;2023-08-01T14:05:18;95394.00;;;23.90
14851;BMP180;7517;48.400;11.770;2023-08-01T14:07:45;95388.00;;;23.90
14851;BMP180;7517;48.400;11.770;2023-08-01T14:10:13;95380.00;;;23.90
14851;BMP180;7517;48.400;11.770;2023-08-01T14:12:43;95374.00;;;23.90
14851;BMP180;7517;48.400;11.770;2023-08-01T14:15:10;95383.00;;;23.80